Main page
METAR-TAF:

METAR-TAF

Airports :

Stauning Vestjylland Airport

Ringkøbing-Skjern, Denmark

latitude: 56-00N, longitude: 008-21E, elevation: 5 m

Current weather observation

The report was made 19 minutes ago, at 16:50 UTC
Wind 9 kt from the West/Northwest, varying between West and Northwest
Temperature 19°C
Humidity 83%
Pressure 1012 hPa
Visibility 10 km or more

METAR: EKVJ 231650Z AUTO 29009KT 260V320 9999 FEW012/// 19/16 Q1012 TEST

Time: 19:09 (17:09 UTC)


TAF: missing

Weather observations and forecasts of more than 4000 airports (METAR and TAF reports).

The available stations are represented by yellow and red dots on the map.

Hover mouse over dot to see the name of the station.

Then click to see weather observations and forecasts.

To change the map : click on the green buttons with a black cross to zoom in, on the green button with a dash to zoom out, or on the green arrows for adjacent maps.


METAR-TAF: